Time,TemperatureF,DewpointF,PressureIn,WindDirection,WindDirectionDegrees,WindSpeedMPH,WindSpeedGustMPH,Humidity,HourlyPrecipIn,Conditions,Clouds,dailyrainin,SolarRadiationWatts/m^2,SoftwareType,DateUTC
2013-02-19 00:05:00,28.4,14.0,30.22,South,180,0.0,2.0,56,0.00,,,0.00,0,weatherlink.com 1.10,2013-02-19 05:05:00,
2013-02-19 00:20:00,28.4,14.0,30.22,South,180,0.0,2.0,56,0.00,,,0.00,0,weatherlink.com 1.10,2013-02-19 05:20:00,
2013-02-19 00:35:00,28.3,15.0,30.22,South,180,0.0,2.0,57,0.00,,,0.00,0,weatherlink.com 1.10,2013-02-19 05:35:00,
2013-02-19 00:50:00,28.2,15.0,30.21,South,180,1.0,2.0,58,0.00,,,0.00,0,weatherlink.com 1.10,2013-02-19 05:50:00,
2013-02-19 01:05:00,28.6,16.0,30.20,South,181,0.0,4.0,59,0.00,,,0.00,0,weatherlink.com 1.10,2013-02-19 06:05:00,
2013-02-19 01:21:00,28.9,16.0,30.19,South,181,0.0,3.0,59,0.00,,,0.00,0,weatherlink.com 1.10,2013-02-19 06:21:00,
2013-02-19 01:35:00,29.3,16.0,30.19,SSE,147,0.0,5.0,58,0.00,,,0.00,0,weatherlink.com 1.10,2013-02-19 06:35:00,
2013-02-19 01:50:00,29.4,17.0,30.19,SSE,159,1.0,3.0,59,0.00,,,0.00,0,weatherlink.com 1.10,2013-02-19 06:50:00,
2013-02-19 02:05:00,29.6,17.0,30.18,South,184,0.0,2.0,59,0.00,,,0.00,0,weatherlink.com 1.10,2013-02-19 07:05:00,
2013-02-19 02:21:00,29.6,18.0,30.16,South,184,0.0,1.0,62,0.00,,,0.00,0,weatherlink.com 1.10,2013-02-19 07:21:00,
2013-02-19 02:36:00,29.9,19.0,30.16,South,188,0.0,3.0,65,0.00,,,0.00,0,weatherlink.com 1.10,2013-02-19 07:36:00,
2013-02-19 02:51:00,30.3,21.0,30.15,South,188,1.0,2.0,68,0.00,,,0.00,0,weatherlink.com 1.10,2013-02-19 07:51:00,
2013-02-19 03:06:00,30.1,21.0,30.15,South,188,0.0,1.0,69,0.00,,,0.00,0,weatherlink.com 1.10,2013-02-19 08:06:00,
2013-02-19 03:21:00,30.0,22.0,30.14,South,188,0.0,2.0,72,0.00,,,0.00,0,weatherlink.com 1.10,2013-02-19 08:21:00,
2013-02-19 03:36:00,30.1,23.0,30.14,South,188,0.0,1.0,74,0.00,,,0.00,0,weatherlink.com 1.10,2013-02-19 08:36:00,
2013-02-19 03:51:00,30.2,24.0,30.14,South,188,0.0,1.0,76,0.00,,,0.00,0,weatherlink.com 1.10,2013-02-19 08:51:00,
2013-02-19 04:06:00,30.1,24.0,30.14,South,188,0.0,0.0,78,0.00,,,0.00,0,weatherlink.com 1.10,2013-02-19 09:06:00,
2013-02-19 04:21:00,29.6,24.0,30.14,South,188,0.0,0.0,79,0.00,,,0.00,0,weatherlink.com 1.10,2013-02-19 09:21:00,
2013-02-19 04:36:00,29.3,24.0,30.13,South,188,0.0,0.0,81,0.00,,,0.00,0,weatherlink.com 1.10,2013-02-19 09:36:00,
2013-02-19 04:51:00,29.7,26.0,30.12,South,188,0.0,3.0,85,0.00,,,0.00,0,weatherlink.com 1.10,2013-02-19 09:51:00,
2013-02-19 05:06:00,30.5,27.0,30.11,South,188,0.0,1.0,85,0.00,,,0.00,0,weatherlink.com 1.10,2013-02-19 10:06:00,
2013-02-19 05:21:00,31.4,27.0,30.10,South,188,0.0,2.0,84,0.00,,,0.00,0,weatherlink.com 1.10,2013-02-19 10:21:00,
2013-02-19 05:36:00,32.0,27.0,30.10,South,173,0.0,2.0,82,0.00,,,0.00,0,weatherlink.com 1.10,2013-02-19 10:36:00,
2013-02-19 05:51:00,32.4,28.0,30.09,South,171,1.0,3.0,82,0.00,,,0.00,0,weatherlink.com 1.10,2013-02-19 10:51:00,
2013-02-19 06:06:00,33.0,28.0,30.09,South,183,0.0,5.0,81,0.00,,,0.00,0,weatherlink.com 1.10,2013-02-19 11:06:00,
2013-02-19 06:21:00,33.0,27.0,30.09,SSE,153,0.0,4.0,80,0.00,,,0.00,0,weatherlink.com 1.10,2013-02-19 11:21:00,
2013-02-19 06:36:00,33.3,28.0,30.08,ESE,114,0.0,4.0,80,0.00,,,0.00,0,weatherlink.com 1.10,2013-02-19 11:36:00,
2013-02-19 06:51:00,33.7,28.0,30.07,South,176,6.0,7.0,79,0.00,,,0.00,9,weatherlink.com 1.10,2013-02-19 11:51:00,
2013-02-19 07:06:00,34.5,28.0,30.07,South,177,3.0,5.0,78,0.00,,,0.00,25,weatherlink.com 1.10,2013-02-19 12:06:00,
2013-02-19 07:22:00,34.9,29.0,30.07,South,177,0.0,5.0,78,0.00,,,0.00,46,weatherlink.com 1.10,2013-02-19 12:22:00,
2013-02-19 07:36:00,35.7,29.0,30.07,SSE,167,0.0,6.0,77,0.00,,,0.00,76,weatherlink.com 1.10,2013-02-19 12:36:00,
2013-02-19 07:51:00,36.6,30.0,30.07,SSE,155,3.0,8.0,76,0.00,,,0.00,102,weatherlink.com 1.10,2013-02-19 12:51:00,
2013-02-19 08:06:00,37.2,30.0,30.07,South,180,3.0,10.0,75,0.00,,,0.00,104,weatherlink.com 1.10,2013-02-19 13:06:00,
2013-02-19 08:21:00,37.8,30.0,30.06,South,170,0.0,8.0,73,0.00,,,0.00,141,weatherlink.com 1.10,2013-02-19 13:21:00,
2013-02-19 08:37:00,39.4,30.0,30.05,South,188,3.0,9.0,70,0.00,,,0.00,160,weatherlink.com 1.10,2013-02-19 13:37:00,
2013-02-19 08:52:00,41.3,30.0,30.05,SSE,157,4.0,9.0,65,0.00,,,0.00,160,weatherlink.com 1.10,2013-02-19 13:52:00,
2013-02-19 09:07:00,42.8,30.0,30.03,SSE,149,3.0,8.0,62,0.00,,,0.00,239,weatherlink.com 1.10,2013-02-19 14:07:00,
2013-02-19 09:22:00,44.7,31.0,30.02,SW,230,4.0,9.0,59,0.00,,,0.00,236,weatherlink.com 1.10,2013-02-19 14:22:00,
2013-02-19 09:37:00,46.7,31.0,30.02,SSE,159,11.0,13.0,54,0.00,,,0.00,643,weatherlink.com 1.10,2013-02-19 14:37:00,
2013-02-19 09:52:00,47.3,31.0,30.01,SSE,157,5.0,14.0,53,0.00,,,0.00,160,weatherlink.com 1.10,2013-02-19 14:52:00,
2013-02-19 10:07:00,47.5,32.0,30.00,SSW,202,3.0,12.0,55,0.00,,,0.00,348,weatherlink.com 1.10,2013-02-19 15:07:00,
2013-02-19 10:22:00,49.1,34.0,29.99,South,180,3.0,13.0,56,0.00,,,0.00,397,weatherlink.com 1.10,2013-02-19 15:22:00,
2013-02-19 10:37:00,49.9,35.0,30.00,NNW,344,6.0,19.0,57,0.00,,,0.00,705,weatherlink.com 1.10,2013-02-19 15:37:00,
2013-02-19 10:52:00,50.3,36.0,29.99,South,191,4.0,13.0,58,0.00,,,0.00,629,weatherlink.com 1.10,2013-02-19 15:52:00,
2013-02-19 11:07:00,51.9,36.0,29.98,WNW,298,4.0,18.0,55,0.00,,,0.00,599,weatherlink.com 1.10,2013-02-19 16:07:00,
2013-02-19 11:22:00,51.9,36.0,29.96,South,178,4.0,12.0,55,0.00,,,0.00,397,weatherlink.com 1.10,2013-02-19 16:22:00,
2013-02-19 11:37:00,51.4,36.0,29.96,SSE,154,3.0,17.0,57,0.00,,,0.00,209,weatherlink.com 1.10,2013-02-19 16:37:00,
2013-02-19 11:52:00,51.7,36.0,29.95,West,275,3.0,13.0,56,0.00,,,0.00,225,weatherlink.com 1.10,2013-02-19 16:52:00,
2013-02-19 12:07:00,51.8,37.0,29.94,South,177,4.0,12.0,57,0.00,,,0.00,258,weatherlink.com 1.10,2013-02-19 17:07:00,
2013-02-19 12:24:00,52.3,36.0,29.94,SSE,167,6.0,11.0,55,0.00,,,0.00,70,weatherlink.com 1.10,2013-02-19 17:24:00,
2013-02-19 12:38:00,51.7,38.0,29.93,SSW,208,0.0,16.0,59,0.00,,,0.00,53,weatherlink.com 1.10,2013-02-19 17:38:00,
2013-02-19 12:52:00,49.7,41.0,29.92,SSE,167,2.0,12.0,71,0.00,,,0.00,35,weatherlink.com 1.10,2013-02-19 17:52:00,
2013-02-19 13:07:00,48.2,42.0,29.91,South,173,11.0,18.0,79,0.01,,,0.01,54,weatherlink.com 1.10,2013-02-19 18:07:00,
2013-02-19 13:25:00,47.4,43.0,29.89,South,182,4.0,7.0,83,0.02,,,0.02,83,weatherlink.com 1.10,2013-02-19 18:25:00,
2013-02-19 13:38:00,46.8,43.0,29.88,South,181,2.0,10.0,85,0.02,,,0.02,135,weatherlink.com 1.10,2013-02-19 18:38:00,
2013-02-19 13:53:00,46.6,43.0,29.87,South,190,3.0,13.0,86,0.03,,,0.03,158,weatherlink.com 1.10,2013-02-19 18:53:00,
2013-02-19 14:08:00,46.4,43.0,29.86,South,175,1.0,10.0,88,0.02,,,0.03,72,weatherlink.com 1.10,2013-02-19 19:08:00,
2013-02-19 14:23:00,45.9,43.0,29.85,SSE,160,2.0,11.0,90,0.01,,,0.03,79,weatherlink.com 1.10,2013-02-19 19:23:00,
2013-02-19 14:38:00,45.8,43.0,29.84,South,180,3.0,8.0,91,0.02,,,0.04,62,weatherlink.com 1.10,2013-02-19 19:38:00,
2013-02-19 15:08:00,45.6,44.0,29.81,SSE,153,0.0,7.0,93,0.02,,,0.05,72,weatherlink.com 1.10,2013-02-19 20:08:00,
2013-02-19 15:23:00,45.8,44.0,29.79,SSE,163,4.0,7.0,93,0.02,,,0.05,65,weatherlink.com 1.10,2013-02-19 20:23:00,
2013-02-19 15:38:00,46.0,44.0,29.78,ESE,112,5.0,7.0,93,0.01,,,0.05,30,weatherlink.com 1.10,2013-02-19 20:38:00,
2013-02-19 15:53:00,46.1,44.0,29.78,SW,216,7.0,9.0,93,0.00,,,0.05,26,weatherlink.com 1.10,2013-02-19 20:53:00,
2013-02-19 16:08:00,46.3,45.0,29.76,South,177,4.0,11.0,94,0.02,,,0.07,32,weatherlink.com 1.10,2013-02-19 21:08:00,
2013-02-19 16:23:00,46.7,45.0,29.76,SSE,168,8.0,11.0,94,0.02,,,0.07,19,weatherlink.com 1.10,2013-02-19 21:23:00,
2013-02-19 16:38:00,46.7,45.0,29.74,SSE,168,5.0,10.0,94,0.04,,,0.09,21,weatherlink.com 1.10,2013-02-19 21:38:00,
2013-02-19 16:53:00,46.6,45.0,29.74,South,171,3.0,13.0,94,0.03,,,0.09,11,weatherlink.com 1.10,2013-02-19 21:53:00,
2013-02-19 17:08:00,46.6,45.0,29.73,South,171,7.0,9.0,95,0.03,,,0.10,7,weatherlink.com 1.10,2013-02-19 22:08:00,
2013-02-19 17:23:00,46.7,45.0,29.72,SW,220,2.0,13.0,95,0.03,,,0.11,0,weatherlink.com 1.10,2013-02-19 22:23:00,
2013-02-19 17:38:00,47.1,46.0,29.71,WSW,254,1.0,12.0,95,0.02,,,0.11,0,weatherlink.com 1.10,2013-02-19 22:38:00,
2013-02-19 17:54:00,47.4,46.0,29.71,West,265,1.0,10.0,95,0.04,,,0.13,0,weatherlink.com 1.10,2013-02-19 22:54:00,
2013-02-19 18:08:00,47.7,46.0,29.71,South,186,0.0,8.0,95,0.04,,,0.14,0,weatherlink.com 1.10,2013-02-19 23:08:00,
2013-02-19 18:23:00,47.8,47.0,29.71,SSW,204,1.0,7.0,96,0.04,,,0.15,0,weatherlink.com 1.10,2013-02-19 23:23:00,
2013-02-19 18:38:00,47.7,47.0,29.70,West,271,3.0,10.0,96,0.05,,,0.16,0,weatherlink.com 1.10,2013-02-19 23:38:00,
2013-02-19 18:53:00,47.3,46.0,29.70,West,275,6.0,7.0,96,0.06,,,0.19,0,weatherlink.com 1.10,2013-02-19 23:53:00,
2013-02-19 19:09:00,47.2,46.0,29.69,SSW,192,0.0,5.0,95,0.05,,,0.19,0,weatherlink.com 1.10,2013-02-20 00:09:00,
2013-02-19 19:24:00,47.1,46.0,29.69,WSW,251,0.0,6.0,96,0.04,,,0.19,0,weatherlink.com 1.10,2013-02-20 00:24:00,
2013-02-19 19:38:00,47.1,46.0,29.69,South,181,0.0,6.0,96,0.02,,,0.19,0,weatherlink.com 1.10,2013-02-20 00:38:00,
2013-02-19 19:53:00,47.1,46.0,29.69,West,275,3.0,10.0,96,0.00,,,0.19,0,weatherlink.com 1.10,2013-02-20 00:53:00,
2013-02-19 20:08:00,47.0,46.0,29.69,West,259,1.0,14.0,95,0.00,,,0.19,0,weatherlink.com 1.10,2013-02-20 01:08:00,
2013-02-19 20:24:00,46.6,44.0,29.70,West,279,5.0,17.0,92,0.00,,,0.19,0,weatherlink.com 1.10,2013-02-20 01:24:00,
2013-02-19 20:38:00,46.0,44.0,29.70,West,275,6.0,13.0,91,0.00,,,0.19,0,weatherlink.com 1.10,2013-02-20 01:38:00,
2013-02-19 20:54:00,45.4,43.0,29.70,WNW,282,3.0,11.0,91,0.00,,,0.19,0,weatherlink.com 1.10,2013-02-20 01:54:00,
2013-02-19 21:08:00,45.0,43.0,29.70,West,259,6.0,9.0,91,0.00,,,0.19,0,weatherlink.com 1.10,2013-02-20 02:08:00,
2013-02-19 21:23:00,44.4,42.0,29.71,WNW,292,4.0,13.0,90,0.00,,,0.19,0,weatherlink.com 1.10,2013-02-20 02:23:00,
2013-02-19 21:39:00,43.9,41.0,29.72,NW,304,7.0,11.0,89,0.00,,,0.19,0,weatherlink.com 1.10,2013-02-20 02:39:00,
2013-02-19 21:53:00,43.5,39.0,29.73,WSW,258,12.0,13.0,85,0.00,,,0.19,0,weatherlink.com 1.10,2013-02-20 02:53:00,
2013-02-19 22:08:00,43.1,38.0,29.73,West,265,12.0,17.0,83,0.00,,,0.19,0,weatherlink.com 1.10,2013-02-20 03:08:00,
2013-02-19 22:23:00,42.8,38.0,29.73,WNW,298,5.0,18.0,83,0.00,,,0.19,0,weatherlink.com 1.10,2013-02-20 03:23:00,
2013-02-19 22:38:00,42.5,36.0,29.73,WNW,292,9.0,22.0,79,0.00,,,0.19,0,weatherlink.com 1.10,2013-02-20 03:38:00,
2013-02-19 22:53:00,42.0,36.0,29.74,West,268,8.0,14.0,79,0.00,,,0.19,0,weatherlink.com 1.10,2013-02-20 03:53:00,
2013-02-19 23:23:00,40.7,34.0,29.75,WNW,285,6.0,13.0,77,0.00,,,0.19,0,weatherlink.com 1.10,2013-02-20 04:23:00,
2013-02-19 23:39:00,40.2,33.0,29.75,West,279,5.0,11.0,74,0.00,,,0.19,0,weatherlink.com 1.10,2013-02-20 04:39:00,
2013-02-19 23:54:00,39.6,31.0,29.75,WNW,288,6.0,17.0,72,0.00,,,0.19,0,weatherlink.com 1.10,2013-02-20 04:54:00,